Time;durP1;ratioP1;P1;durP2;ratioP2;P2;SDS_P1;SDS_P2;PMS_P1;PMS_P2;Temp;Humidity;BMP_temperature;BMP_pressure;BME280_temperature;BME280_humidity;BME280_pressure;Samples;Min_cycle;Max_cycle;Signal;HPM_P1;HPM_P2
2022/03/07 00:01:05;;;;;;;23.20;13.93;;;2.00;99.90;;;;;;5072044;28;20455;-64
2022/03/07 00:03:33;;;;;;;28.90;16.20;;;2.10;99.90;;;;;;5063108;28;20464;-64
2022/03/07 00:06:02;;;;;;;25.10;15.47;;;2.10;99.90;;;;;;5056557;28;20468;-64
2022/03/07 00:08:31;;;;;;;20.13;13.00;;;2.00;99.90;;;;;;5066266;28;20471;-63
2022/03/07 00:11:04;;;;;;;22.93;13.07;;;1.90;99.90;;;;;;5071651;28;20557;-64
2022/03/07 00:13:32;;;;;;;27.93;13.90;;;2.00;99.90;;;;;;5071393;28;20513;-64
2022/03/07 00:16:02;;;;;;;17.50;11.07;;;2.00;99.90;;;;;;5071337;28;20467;-64
2022/03/07 00:18:31;;;;;;;23.13;13.03;;;2.30;99.90;;;;;;5071903;28;20565;-64
2022/03/07 00:20:59;;;;;;;18.50;11.87;;;1.90;99.90;;;;;;5071575;28;20462;-64
2022/03/07 00:23:27;;;;;;;22.63;13.17;;;1.90;99.90;;;;;;5057219;28;20462;-64
2022/03/07 00:25:56;;;;;;;19.60;12.47;;;1.90;99.90;;;;;;5051478;28;20554;-64
2022/03/07 00:28:24;;;;;;;16.80;10.23;;;2.00;99.90;;;;;;5051005;28;20467;-64
2022/03/07 00:30:53;;;;;;;18.67;11.17;;;1.90;99.90;;;;;;5051412;28;20462;-63
2022/03/07 00:33:21;;;;;;;19.93;11.40;;;1.60;99.90;;;;;;5057768;28;20466;-64
2022/03/07 00:35:49;;;;;;;16.07;10.47;;;1.60;99.90;;;;;;5057867;28;20490;-64
2022/03/07 00:38:18;;;;;;;18.37;11.07;;;1.60;99.90;;;;;;5063960;28;20478;-65
2022/03/07 00:40:47;;;;;;;18.13;10.17;;;1.40;99.90;;;;;;5071209;28;20462;-65
2022/03/07 00:43:18;;;;;;;15.13;11.20;;;1.40;99.90;;;;;;5071180;28;20659;-64
2022/03/07 00:45:46;;;;;;;15.53;9.37;;;1.40;99.90;;;;;;5069836;28;20482;-64
2022/03/07 00:48:15;;;;;;;16.27;11.23;;;1.40;99.90;;;;;;5069720;28;20490;-64
2022/03/07 00:50:45;;;;;;;18.97;10.77;;;1.20;99.90;;;;;;5071273;28;20500;-64
2022/03/07 00:53:14;;;;;;;16.73;10.83;;;1.10;99.90;;;;;;5070776;28;21000;-64
2022/03/07 00:55:42;;;;;;;17.73;10.70;;;1.40;99.90;;;;;;5069631;28;20477;-64
2022/03/07 00:58:14;;;;;;;16.77;10.43;;;1.50;99.90;;;;;;5103474;28;20470;-64
2022/03/07 01:00:44;;;;;;;21.43;13.17;;;1.70;99.90;;;;;;5071062;28;20886;-65
2022/03/07 01:03:17;;;;;;;24.67;12.73;;;1.90;99.90;;;;;;5062371;28;20474;-64
2022/03/07 01:05:47;;;;;;;17.37;10.53;;;1.70;99.90;;;;;;5057741;28;20873;-65
2022/03/07 01:08:15;;;;;;;27.27;12.73;;;1.50;99.90;;;;;;5063293;28;20837;-65
2022/03/07 01:10:44;;;;;;;23.43;11.63;;;1.40;99.90;;;;;;5069433;28;20485;-65
2022/03/07 01:13:13;;;;;;;21.93;12.33;;;1.80;99.90;;;;;;5070609;28;20461;-64
2022/03/07 01:15:42;;;;;;;24.37;11.90;;;1.50;99.90;;;;;;5070737;28;20842;-64
2022/03/07 01:18:11;;;;;;;24.40;14.07;;;1.70;99.90;;;;;;5058742;28;20499;-64
2022/03/07 01:20:39;;;;;;;24.20;14.03;;;1.80;99.90;;;;;;5050622;28;20467;-64
2022/03/07 01:23:08;;;;;;;22.33;12.87;;;2.00;99.90;;;;;;5082594;28;20982;-64
2022/03/07 01:25:36;;;;;;;26.93;13.60;;;1.80;99.90;;;;;;5050747;28;20470;-65
2022/03/07 01:28:05;;;;;;;23.80;14.57;;;2.00;99.90;;;;;;5051751;28;20472;-64
2022/03/07 01:30:33;;;;;;;26.40;14.87;;;2.00;99.90;;;;;;5053341;28;20510;-64
2022/03/07 01:33:04;;;;;;;26.33;13.97;;;1.80;99.90;;;;;;5061922;28;20465;-64
2022/03/07 01:35:32;;;;;;;29.07;14.63;;;1.80;99.90;;;;;;5069191;28;20470;-64
2022/03/07 01:38:01;;;;;;;17.53;11.33;;;1.50;99.90;;;;;;5069251;28;20558;-63
2022/03/07 01:40:29;;;;;;;23.23;14.60;;;1.60;99.90;;;;;;5074865;28;20465;-64
2022/03/07 01:42:57;;;;;;;18.80;12.37;;;1.50;99.90;;;;;;5064546;28;21067;-64
2022/03/07 01:45:26;;;;;;;17.20;11.53;;;1.40;99.90;;;;;;5053195;28;20491;-64
2022/03/07 01:47:54;;;;;;;15.97;11.40;;;1.50;99.90;;;;;;5054400;28;20489;-64
2022/03/07 01:50:24;;;;;;;18.73;12.80;;;1.60;99.90;;;;;;5054327;28;20926;-64
2022/03/07 01:52:53;;;;;;;20.63;13.57;;;1.70;99.90;;;;;;5062086;28;20489;-65
2022/03/07 01:55:24;;;;;;;19.13;13.77;;;1.80;99.90;;;;;;5073111;28;20473;-64
2022/03/07 01:57:54;;;;;;;17.27;12.70;;;1.60;99.90;;;;;;5072771;28;20811;-65
2022/03/07 02:00:25;;;;;;;20.50;13.57;;;1.30;99.90;;;;;;5072820;28;20474;-65
2022/03/07 02:02:54;;;;;;;19.70;13.90;;;1.30;99.90;;;;;;5068522;28;20586;-64
2022/03/07 02:05:33;;;;;;;14.00;10.80;;;1.20;99.90;;;;;;5063931;28;20973;-63
2022/03/07 02:08:06;;;;;;;14.80;11.77;;;1.10;99.90;;;;;;5072542;28;20864;-65
2022/03/07 02:10:44;;;;;;;20.70;14.53;;;1.50;99.90;;;;;;5068197;28;20991;-64
2022/03/07 02:13:15;;;;;;;15.07;11.83;;;1.20;99.90;;;;;;5069131;28;20561;-64
2022/03/07 02:15:56;;;;;;;14.43;11.33;;;1.00;99.90;;;;;;5074059;28;20480;-64
2022/03/07 02:18:29;;;;;;;14.13;10.90;;;0.80;99.90;;;;;;5072463;28;20467;-64
2022/03/07 02:21:09;;;;;;;13.63;10.87;;;0.50;99.90;;;;;;5106012;28;20999;-64
2022/03/07 02:23:46;;;;;;;16.23;13.23;;;0.90;99.90;;;;;;5055556;28;20531;-65
2022/03/07 02:26:15;;;;;;;13.57;10.83;;;0.70;99.90;;;;;;5053740;28;20474;-65
2022/03/07 02:28:46;;;;;;;15.00;12.60;;;0.80;99.90;;;;;;5068624;28;20997;-65
2022/03/07 02:31:19;;;;;;;14.00;11.00;;;0.90;99.90;;;;;;5106151;28;20474;-64
2022/03/07 02:33:49;;;;;;;15.10;11.63;;;1.10;99.90;;;;;;5063948;28;20502;-65
2022/03/07 02:36:20;;;;;;;14.83;11.43;;;1.10;99.90;;;;;;5054498;28;20907;-65
2022/03/07 02:38:50;;;;;;;16.23;13.50;;;1.20;99.90;;;;;;5068931;28;20465;-64
2022/03/07 02:41:19;;;;;;;12.83;9.93;;;1.10;99.90;;;;;;5070832;28;20477;-65
2022/03/07 02:43:50;;;;;;;16.83;13.07;;;1.10;99.90;;;;;;5065378;28;20444;-64
2022/03/07 02:46:18;;;;;;;17.20;12.10;;;1.10;99.90;;;;;;5073364;28;20476;-65
2022/03/07 02:48:46;;;;;;;13.37;10.83;;;1.20;99.90;;;;;;5071790;28;20474;-65
2022/03/07 02:51:15;;;;;;;13.87;11.27;;;1.30;99.90;;;;;;5071936;28;20505;-64
2022/03/07 02:53:45;;;;;;;13.80;10.40;;;1.00;99.90;;;;;;5071406;28;21005;-64
2022/03/07 02:56:15;;;;;;;13.60;10.90;;;0.90;99.90;;;;;;5073066;28;20477;-65
2022/03/07 02:58:43;;;;;;;15.17;11.70;;;1.00;99.90;;;;;;5073068;28;20553;-65
2022/03/07 03:01:11;;;;;;;16.60;12.60;;;0.80;99.90;;;;;;5073193;28;20479;-65
2022/03/07 03:03:39;;;;;;;15.60;12.30;;;0.80;99.90;;;;;;5073058;28;20474;-65
2022/03/07 03:06:08;;;;;;;15.27;12.47;;;1.00;99.90;;;;;;5073151;28;20470;-64
2022/03/07 03:08:36;;;;;;;17.60;13.03;;;1.10;99.90;;;;;;5057533;28;20499;-65
2022/03/07 03:11:04;;;;;;;15.47;12.53;;;1.40;99.90;;;;;;5052945;28;20475;-65
2022/03/07 03:13:34;;;;;;;16.47;12.30;;;1.40;99.90;;;;;;5052739;28;20505;-65
2022/03/07 03:16:02;;;;;;;17.83;13.47;;;1.20;99.90;;;;;;5052782;28;20472;-65
2022/03/07 03:18:30;;;;;;;16.70;13.20;;;1.30;99.90;;;;;;5052695;28;20818;-63
2022/03/07 03:20:59;;;;;;;15.47;12.37;;;1.00;99.90;;;;;;5053133;28;20474;-65
2022/03/07 03:23:27;;;;;;;13.90;10.83;;;0.70;99.90;;;;;;5068730;28;20523;-64
2022/03/07 03:25:55;;;;;;;14.40;10.87;;;0.80;99.90;;;;;;5066676;28;20467;-65
2022/03/07 03:28:24;;;;;;;15.30;12.50;;;0.60;99.90;;;;;;5058709;28;20867;-65
2022/03/07 03:30:57;;;;;;;13.73;11.23;;;0.40;99.90;;;;;;5052756;28;20532;-65
2022/03/07 03:33:26;;;;;;;17.03;13.30;;;0.70;99.90;;;;;;5068502;28;20472;-64
2022/03/07 03:35:54;;;;;;;18.67;13.40;;;0.70;99.90;;;;;;5072315;28;20541;-65
2022/03/07 03:38:22;;;;;;;17.27;12.40;;;0.80;99.90;;;;;;5072049;28;20456;-65
2022/03/07 03:40:50;;;;;;;16.30;11.97;;;0.90;99.90;;;;;;5072210;28;20478;-65
2022/03/07 03:43:18;;;;;;;17.57;13.60;;;0.80;99.90;;;;;;5072220;28;20825;-65
2022/03/07 03:45:46;;;;;;;15.97;12.77;;;0.80;99.90;;;;;;5072296;28;20479;-65
2022/03/07 03:48:15;;;;;;;14.50;11.17;;;0.50;99.90;;;;;;5071703;28;20568;-65
2022/03/07 03:50:44;;;;;;;14.77;11.30;;;0.50;99.90;;;;;;5071422;28;21079;-65
2022/03/07 03:53:12;;;;;;;14.77;11.70;;;0.60;99.90;;;;;;5074032;28;20513;-64
2022/03/07 03:55:40;;;;;;;17.07;12.83;;;0.80;99.90;;;;;;5062084;28;20489;-64
2022/03/07 03:58:08;;;;;;;15.13;11.83;;;0.90;99.90;;;;;;5071824;28;20454;-64
2022/03/07 04:00:36;;;;;;;17.07;13.33;;;0.60;99.90;;;;;;5072049;28;21054;-65
2022/03/07 04:03:06;;;;;;;16.23;12.23;;;0.60;99.90;;;;;;5071589;28;20465;-65
2022/03/07 04:05:35;;;;;;;18.13;13.47;;;0.70;99.90;;;;;;5071751;28;20465;-65
2022/03/07 04:08:04;;;;;;;17.60;13.17;;;0.60;99.90;;;;;;5071613;28;20493;-65
2022/03/07 04:10:32;;;;;;;16.87;12.30;;;0.50;99.90;;;;;;5071749;28;20810;-64
2022/03/07 04:13:00;;;;;;;14.63;11.07;;;0.30;99.90;;;;;;5073394;28;20505;-63
2022/03/07 04:15:28;;;;;;;15.20;12.47;;;0.20;99.90;;;;;;5071871;28;20540;-65
2022/03/07 04:17:56;;;;;;;18.00;13.00;;;0.40;99.90;;;;;;5071490;28;20484;-65
2022/03/07 04:20:26;;;;;;;17.97;13.33;;;0.20;99.90;;;;;;5071499;28;20544;-64
2022/03/07 04:22:55;;;;;;;18.93;13.20;;;0.30;99.90;;;;;;5071131;28;20482;-65
2022/03/07 04:25:23;;;;;;;17.73;12.67;;;0.20;99.90;;;;;;5071361;28;20462;-65
2022/03/07 04:27:51;;;;;;;20.03;13.97;;;0.20;99.90;;;;;;5071088;28;20474;-64
2022/03/07 04:30:20;;;;;;;25.07;16.90;;;0.30;99.90;;;;;;5070993;28;21023;-65
2022/03/07 04:32:48;;;;;;;20.00;14.63;;;0.40;99.90;;;;;;5073095;28;20474;-65
2022/03/07 04:35:16;;;;;;;19.37;14.13;;;0.50;99.90;;;;;;5071062;28;20539;-65
2022/03/07 04:37:45;;;;;;;18.87;14.00;;;0.40;99.90;;;;;;5070980;28;20466;-65
2022/03/07 04:40:17;;;;;;;17.67;13.53;;;0.60;99.90;;;;;;5071339;28;20556;-65
2022/03/07 04:42:46;;;;;;;19.50;14.37;;;0.70;99.90;;;;;;5070999;28;20870;-64
2022/03/07 04:45:14;;;;;;;15.97;12.80;;;0.50;99.90;;;;;;5071103;28;20461;-65
2022/03/07 04:47:43;;;;;;;18.03;13.67;;;0.40;99.90;;;;;;5070458;28;20510;-65
2022/03/07 04:50:12;;;;;;;15.77;11.77;;;0.20;99.90;;;;;;5068052;28;20454;-65
2022/03/07 04:52:42;;;;;;;16.50;12.90;;;-0.10;99.90;;;;;;5068891;28;20549;-65
2022/03/07 04:55:11;;;;;;;15.93;11.77;;;0.10;99.90;;;;;;5070414;28;20466;-65
2022/03/07 04:57:43;;;;;;;15.77;11.40;;;0.20;99.90;;;;;;5070112;28;20475;-65
2022/03/07 05:00:13;;;;;;;18.47;13.97;;;0.10;99.90;;;;;;5070270;28;20557;-65
2022/03/07 05:02:41;;;;;;;13.30;11.00;;;0.30;99.90;;;;;;5069515;28;20853;-65
2022/03/07 05:05:09;;;;;;;14.63;11.17;;;0.20;99.90;;;;;;5070516;28;20470;-65
2022/03/07 05:07:38;;;;;;;16.33;12.17;;;0.30;99.90;;;;;;5070680;28;20462;-65
2022/03/07 05:10:07;;;;;;;16.83;12.60;;;0.20;99.90;;;;;;5070880;28;20504;-65
2022/03/07 05:12:35;;;;;;;17.03;12.30;;;0.20;99.90;;;;;;5072852;28;20536;-65
2022/03/07 05:15:05;;;;;;;16.00;11.47;;;0.20;99.90;;;;;;5070837;28;20469;-65
2022/03/07 05:17:41;;;;;;;18.17;13.07;;;0.30;99.90;;;;;;5070571;28;20500;-64
2022/03/07 05:20:11;;;;;;;22.23;14.03;;;0.60;99.90;;;;;;5070691;28;20476;-66
2022/03/07 05:22:39;;;;;;;22.07;14.00;;;0.80;99.90;;;;;;5054285;28;20470;-65
2022/03/07 05:25:09;;;;;;;24.63;16.00;;;0.70;99.90;;;;;;5070718;28;20465;-65
2022/03/07 05:27:37;;;;;;;26.80;18.50;;;0.70;99.90;;;;;;5063343;28;20470;-65
2022/03/07 05:30:09;;;;;;;26.60;18.60;;;0.90;99.90;;;;;;5050603;28;20463;-65
2022/03/07 05:32:37;;;;;;;28.20;16.37;;;0.20;99.90;;;;;;5052612;28;20525;-65
2022/03/07 05:35:07;;;;;;;23.77;15.33;;;0.10;99.90;;;;;;5050670;28;20971;-64
2022/03/07 05:37:35;;;;;;;25.87;16.87;;;0.10;99.90;;;;;;5050013;28;20501;-65
2022/03/07 05:40:04;;;;;;;28.57;17.83;;;0.30;99.90;;;;;;5050479;28;21022;-65
2022/03/07 05:42:32;;;;;;;29.33;18.37;;;0.60;99.90;;;;;;5043864;28;20475;-65
2022/03/07 05:45:00;;;;;;;28.33;17.30;;;0.30;99.90;;;;;;5031167;28;20468;-65
2022/03/07 05:47:29;;;;;;;27.40;17.43;;;0.30;99.90;;;;;;5030589;28;20467;-65
2022/03/07 05:49:57;;;;;;;28.30;17.83;;;0.40;99.90;;;;;;5035248;28;20492;-65
2022/03/07 05:52:26;;;;;;;29.77;19.37;;;0.40;99.90;;;;;;5043892;28;20972;-65
2022/03/07 05:54:54;;;;;;;31.20;19.57;;;0.60;99.90;;;;;;5041756;28;20473;-65
2022/03/07 05:57:22;;;;;;;33.33;20.00;;;0.60;99.90;;;;;;5036546;28;20466;-65
2022/03/07 05:59:50;;;;;;;32.90;18.17;;;0.40;99.90;;;;;;5064243;28;20517;-65
2022/03/07 06:02:18;;;;;;;34.63;21.30;;;0.50;99.90;;;;;;5054632;28;20484;-66
2022/03/07 06:04:48;;;;;;;28.27;17.90;;;0.40;99.90;;;;;;5061927;28;21013;-65
2022/03/07 06:07:16;;;;;;;32.80;22.07;;;0.30;99.90;;;;;;5067543;28;20492;-65
2022/03/07 06:09:44;;;;;;;30.30;18.93;;;0.30;99.90;;;;;;5061811;28;20501;-64
2022/03/07 06:12:13;;;;;;;25.90;17.57;;;0.30;99.90;;;;;;5069774;28;20477;-65
2022/03/07 06:14:41;;;;;;;28.17;17.73;;;0.00;99.90;;;;;;5063055;28;20470;-65
2022/03/07 06:17:09;;;;;;;34.87;20.93;;;-0.30;99.90;;;;;;5064600;28;20536;-65
2022/03/07 06:19:37;;;;;;;31.97;18.70;;;-0.30;99.90;;;;;;5062112;28;20458;-65
2022/03/07 06:22:07;;;;;;;34.80;20.53;;;0.10;99.90;;;;;;5057867;28;20497;-65
2022/03/07 06:24:35;;;;;;;39.07;23.83;;;0.50;99.90;;;;;;5073082;28;20464;-65
2022/03/07 06:27:03;;;;;;;29.93;20.17;;;0.70;99.90;;;;;;5073539;28;20480;-65
2022/03/07 06:29:32;;;;;;;28.17;18.67;;;0.40;99.90;;;;;;5062543;28;20495;-64
2022/03/07 06:32:00;;;;;;;33.80;20.23;;;0.00;99.90;;;;;;5071174;28;20483;-65
2022/03/07 06:34:28;;;;;;;37.97;21.87;;;0.50;99.90;;;;;;5073216;28;20466;-66
2022/03/07 06:36:56;;;;;;;36.23;22.70;;;0.80;99.90;;;;;;5066404;28;20897;-65
2022/03/07 06:39:27;;;;;;;34.73;21.67;;;0.50;99.90;;;;;;5062104;28;20492;-65
2022/03/07 06:41:55;;;;;;;44.73;26.57;;;0.60;99.90;;;;;;5072944;28;20468;-66
2022/03/07 06:44:24;;;;;;;33.70;24.47;;;0.50;99.90;;;;;;5071497;28;20476;-65
2022/03/07 06:46:52;;;;;;;30.17;20.57;;;0.30;99.90;;;;;;5073140;28;20454;-65
2022/03/07 06:49:20;;;;;;;32.03;22.30;;;0.10;99.90;;;;;;5063858;28;21019;-65
2022/03/07 06:51:48;;;;;;;28.47;20.60;;;0.00;99.90;;;;;;5070218;28;20468;-65
2022/03/07 06:54:17;;;;;;;23.87;18.23;;;0.00;99.90;;;;;;5067349;28;20890;-65
2022/03/07 06:56:46;;;;;;;23.53;17.43;;;-0.30;99.90;;;;;;5072627;28;20523;-65
2022/03/07 06:59:15;;;;;;;22.53;17.83;;;-0.30;99.90;;;;;;5053083;28;20474;-65
2022/03/07 07:01:43;;;;;;;20.60;17.27;;;-0.30;99.90;;;;;;5065099;28;20486;-65
2022/03/07 07:04:11;;;;;;;22.83;18.63;;;0.30;99.90;;;;;;5069703;28;20473;-64
2022/03/07 07:06:39;;;;;;;18.83;16.20;;;0.40;99.90;;;;;;5072699;28;20538;-65
2022/03/07 07:09:08;;;;;;;19.53;13.67;;;0.20;99.90;;;;;;5067551;28;20477;-65
2022/03/07 07:11:36;;;;;;;20.67;16.40;;;0.50;99.90;;;;;;5072696;28;20548;-64
2022/03/07 07:14:06;;;;;;;16.27;14.03;;;0.50;99.90;;;;;;5072542;28;20488;-65
2022/03/07 07:16:34;;;;;;;18.97;15.20;;;0.50;99.90;;;;;;5072684;28;20477;-65
2022/03/07 07:19:02;;;;;;;19.47;15.73;;;0.80;99.90;;;;;;5053648;28;21065;-65
2022/03/07 07:21:30;;;;;;;16.17;14.37;;;0.70;99.90;;;;;;5070286;28;20973;-64
2022/03/07 07:23:58;;;;;;;15.03;13.40;;;0.70;99.90;;;;;;5068979;28;20469;-64
2022/03/07 07:26:26;;;;;;;14.87;13.17;;;0.80;99.90;;;;;;5071696;28;20466;-65
2022/03/07 07:29:03;;;;;;;14.80;12.87;;;0.80;99.90;;;;;;5061849;28;20843;-64
2022/03/07 07:31:32;;;;;;;14.87;12.80;;;0.90;99.90;;;;;;5072111;28;20548;-64
2022/03/07 07:34:00;;;;;;;14.80;12.57;;;1.00;99.90;;;;;;5071427;28;20528;-65
2022/03/07 07:36:28;;;;;;;14.90;12.43;;;1.10;99.90;;;;;;5072348;28;20532;-64
2022/03/07 07:38:56;;;;;;;15.70;13.33;;;1.30;99.90;;;;;;5072219;28;20465;-65
2022/03/07 07:41:25;;;;;;;14.17;12.63;;;1.40;99.90;;;;;;5070354;28;20454;-64
2022/03/07 07:43:53;;;;;;;15.00;10.97;;;1.50;99.90;;;;;;5068151;28;20462;-64
2022/03/07 07:46:21;;;;;;;15.37;13.77;;;1.80;99.90;;;;;;5072293;28;20469;-64
2022/03/07 07:48:51;;;;;;;15.60;13.90;;;1.90;99.90;;;;;;5072013;28;20474;-64
2022/03/07 07:51:19;;;;;;;13.93;11.83;;;2.20;99.90;;;;;;5072250;28;20500;-64
2022/03/07 07:53:47;;;;;;;15.77;13.73;;;2.40;99.90;;;;;;5061218;28;20470;-64
2022/03/07 07:56:15;;;;;;;14.63;13.10;;;2.40;99.90;;;;;;5071937;28;20469;-64
2022/03/07 07:58:44;;;;;;;14.70;13.20;;;2.60;99.90;;;;;;5071538;28;20837;-64
2022/03/07 08:01:12;;;;;;;13.83;12.43;;;2.70;99.90;;;;;;5069758;28;20463;-64
2022/03/07 08:03:40;;;;;;;14.20;12.77;;;2.90;99.90;;;;;;5054418;28;20472;-64
2022/03/07 08:06:10;;;;;;;14.00;12.33;;;3.10;99.90;;;;;;5072303;28;20529;-64
2022/03/07 08:09:24;;;;;;;14.50;12.50;;;3.40;99.90;;;;;;5065531;28;20467;-64
2022/03/07 08:11:53;;;;;;;15.17;13.57;;;3.60;99.90;;;;;;5065029;28;20466;-63
2022/03/07 08:14:21;;;;;;;16.87;13.07;;;3.70;99.90;;;;;;5059439;28;20472;-64
2022/03/07 08:16:49;;;;;;;15.07;13.13;;;4.00;99.90;;;;;;5071450;28;21065;-64
2022/03/07 08:19:17;;;;;;;14.30;12.80;;;4.00;99.90;;;;;;5071297;28;20473;-64
2022/03/07 08:21:47;;;;;;;13.13;11.83;;;4.20;99.90;;;;;;5071124;28;20481;-60
2022/03/07 08:24:15;;;;;;;14.80;13.30;;;4.50;99.90;;;;;;5051445;28;20475;-60
2022/03/07 08:26:43;;;;;;;14.53;13.03;;;4.60;99.90;;;;;;5060512;28;20460;-60
2022/03/07 08:29:11;;;;;;;14.10;12.63;;;4.70;99.90;;;;;;5070705;28;20535;-60
2022/03/07 08:31:39;;;;;;;14.63;12.77;;;4.90;99.90;;;;;;5071174;28;20480;-60
2022/03/07 08:34:07;;;;;;;13.43;12.10;;;4.90;99.90;;;;;;5051580;28;20475;-60
2022/03/07 08:36:36;;;;;;;12.87;11.47;;;5.10;99.90;;;;;;5051051;28;20862;-61
2022/03/07 08:39:05;;;;;;;12.60;11.23;;;5.30;99.90;;;;;;5069921;28;20497;-60
2022/03/07 08:41:35;;;;;;;13.57;10.80;;;5.60;99.90;;;;;;5071203;28;20468;-60
2022/03/07 08:44:03;;;;;;;10.77;9.57;;;5.70;99.90;;;;;;5052062;28;20493;-60
2022/03/07 08:46:31;;;;;;;12.97;11.53;;;5.90;99.90;;;;;;5051386;28;20457;-61
2022/03/07 08:48:59;;;;;;;11.07;9.73;;;6.10;99.90;;;;;;5069845;28;20476;-61
2022/03/07 08:51:28;;;;;;;11.27;10.10;;;6.20;99.90;;;;;;5071175;28;20468;-60
2022/03/07 08:53:56;;;;;;;11.30;9.63;;;6.40;99.90;;;;;;5071031;28;20976;-60
2022/03/07 08:56:25;;;;;;;11.50;10.30;;;6.80;99.90;;;;;;5066977;28;20239;-61
2022/03/07 08:58:55;;;;;;;10.27;9.27;;;7.00;99.90;;;;;;5068813;28;20238;-60
2022/03/07 09:01:24;;;;;;;12.27;10.03;;;7.00;99.90;;;;;;5070391;28;20235;-60
2022/03/07 09:03:52;;;;;;;12.33;9.17;;;7.10;99.90;;;;;;5069265;28;20231;-60
2022/03/07 09:06:20;;;;;;;10.87;9.43;;;6.80;99.90;;;;;;5067760;28;20322;-60
2022/03/07 09:08:48;;;;;;;10.17;9.17;;;6.90;99.90;;;;;;5070082;28;20573;-60
2022/03/07 09:11:22;;;;;;;10.47;9.37;;;7.30;99.90;;;;;;5067895;28;20233;-60
2022/03/07 09:13:52;;;;;;;8.50;7.60;;;7.40;99.90;;;;;;5066041;28;20728;-60
2022/03/07 09:16:20;;;;;;;10.53;8.77;;;7.60;99.90;;;;;;5061870;28;20258;-60
2022/03/07 09:18:49;;;;;;;9.53;8.53;;;7.80;99.90;;;;;;5053907;28;20239;-60
2022/03/07 09:21:17;;;;;;;9.00;8.10;;;8.10;99.90;;;;;;5053768;28;20235;-60
2022/03/07 09:23:46;;;;;;;8.00;6.70;;;8.40;99.90;;;;;;5054234;28;20242;-60
2022/03/07 09:26:14;;;;;;;8.33;6.93;;;8.50;99.90;;;;;;5057090;28;20703;-60
2022/03/07 09:28:43;;;;;;;8.10;6.90;;;8.50;99.90;;;;;;5070019;28;20246;-60
2022/03/07 09:31:13;;;;;;;7.97;6.43;;;8.40;99.90;;;;;;5070712;28;20234;-60
2022/03/07 09:33:42;;;;;;;7.13;6.40;;;8.60;99.90;;;;;;5055140;28;20232;-60
2022/03/07 09:36:10;;;;;;;7.30;6.37;;;8.80;99.90;;;;;;5050687;28;20262;-60
2022/03/07 09:38:38;;;;;;;6.80;5.67;;;9.10;99.90;;;;;;5050374;28;20228;-60
2022/03/07 09:41:07;;;;;;;6.07;5.20;;;9.30;99.90;;;;;;5050463;28;20236;-60
2022/03/07 09:43:35;;;;;;;4.90;4.50;;;9.50;99.90;;;;;;5050487;28;20232;-60
2022/03/07 09:46:03;;;;;;;7.17;5.47;;;9.60;99.90;;;;;;5064664;28;20568;-63
2022/03/07 09:48:33;;;;;;;6.27;5.67;;;9.90;99.90;;;;;;5068991;28;20226;-62
2022/03/07 09:51:04;;;;;;;5.97;5.37;;;10.00;99.90;;;;;;5071264;28;20261;-62
2022/03/07 09:53:32;;;;;;;5.67;5.17;;;10.00;99.90;;;;;;5071737;28;20231;-62
2022/03/07 09:56:00;;;;;;;6.50;4.70;;;10.20;99.90;;;;;;5074160;28;20256;-62
2022/03/07 09:58:28;;;;;;;6.23;4.67;;;10.40;99.90;;;;;;5060127;28;20269;-62
2022/03/07 10:01:06;;;;;;;5.40;4.73;;;10.30;99.90;;;;;;5069922;28;20315;-62
2022/03/07 10:03:36;;;;;;;4.70;4.10;;;10.30;99.90;;;;;;5067219;28;20226;-62
2022/03/07 10:09:00;;;;;;;4.50;4.10;;;10.60;99.90;;;;;;5140905;23;20259;-61
2022/03/07 10:11:30;;;;;;;5.17;4.07;;;10.70;99.90;;;;;;4884738;29;20260;-61
2022/03/07 10:14:00;;;;;;;5.33;3.93;;;11.00;99.90;;;;;;4877060;29;20242;-61
2022/03/07 10:16:39;;;;;;;7.40;4.47;;;11.00;99.90;;;;;;4880436;29;20239;-61
2022/03/07 10:19:11;;;;;;;5.07;4.53;;;10.90;99.90;;;;;;4898436;29;20245;-62
2022/03/07 10:21:46;;;;;;;5.27;4.10;;;11.00;99.90;;;;;;4902269;29;20247;-61
2022/03/07 10:24:15;;;;;;;5.03;4.47;;;10.80;99.90;;;;;;4895646;29;20233;-61
2022/03/07 10:26:43;;;;;;;4.50;4.00;;;11.00;99.90;;;;;;4897838;29;20266;-61
2022/03/07 10:29:12;;;;;;;6.73;4.70;;;11.20;99.90;;;;;;4898255;29;20264;-62
2022/03/07 10:31:58;;;;;;;6.30;4.47;;;11.50;99.90;;;;;;4899611;29;20320;-61
2022/03/07 10:34:28;;;;;;;5.37;4.70;;;11.80;99.90;;;;;;4898722;29;20289;-61
2022/03/07 10:36:57;;;;;;;4.97;4.47;;;11.50;99.90;;;;;;4899316;29;20737;-61
2022/03/07 10:39:27;;;;;;;4.40;4.00;;;11.50;99.90;;;;;;4898386;29;20253;-61
2022/03/07 10:41:55;;;;;;;5.37;4.10;;;11.80;99.90;;;;;;4898512;29;20736;-61
2022/03/07 10:44:26;;;;;;;4.37;3.70;;;11.90;99.90;;;;;;4898628;29;20261;-61
2022/03/07 10:47:06;;;;;;;5.47;3.83;;;11.90;99.90;;;;;;4898533;29;20234;-61
2022/03/07 10:49:36;;;;;;;5.10;3.57;;;11.80;99.90;;;;;;4893116;29;20585;-61
2022/03/07 10:52:05;;;;;;;4.47;3.30;;;11.60;99.90;;;;;;4890753;29;20226;-61
2022/03/07 10:54:37;;;;;;;3.13;2.73;;;11.50;99.90;;;;;;4897464;29;20232;-61
2022/03/07 10:57:08;;;;;;;3.07;2.83;;;11.70;99.90;;;;;;4897501;29;20642;-61
2022/03/07 10:59:38;;;;;;;4.33;2.97;;;11.80;99.90;;;;;;4897512;29;20243;-61
2022/03/07 11:02:09;;;;;;;3.83;2.60;;;11.90;99.90;;;;;;4894865;29;20266;-61
2022/03/07 11:04:40;;;;;;;4.20;3.13;;;11.90;99.90;;;;;;4897474;29;20647;-61
2022/03/07 11:07:09;;;;;;;5.43;3.10;;;11.60;99.90;;;;;;4896726;29;20242;-61
2022/03/07 11:09:38;;;;;;;3.20;2.67;;;11.40;99.90;;;;;;4897439;29;20595;-61
2022/03/07 11:12:10;;;;;;;3.53;2.90;;;11.40;99.90;;;;;;4897247;29;20733;-61
2022/03/07 11:14:40;;;;;;;4.90;2.90;;;11.60;99.90;;;;;;4895018;29;20240;-61
2022/03/07 11:17:12;;;;;;;4.03;3.07;;;11.50;99.90;;;;;;4896872;29;20239;-61
2022/03/07 11:19:42;;;;;;;4.27;3.33;;;11.20;99.90;;;;;;4895090;29;20285;-61
2022/03/07 11:22:12;;;;;;;3.50;3.20;;;10.90;99.90;;;;;;4895891;29;20235;-61
2022/03/07 11:24:41;;;;;;;3.70;3.07;;;11.30;99.90;;;;;;4895064;29;20237;-61
2022/03/07 11:27:09;;;;;;;3.53;3.10;;;11.70;99.90;;;;;;4894325;29;20385;-60
2022/03/07 11:29:40;;;;;;;3.80;3.30;;;11.40;99.90;;;;;;4896821;29;20226;-61
2022/03/07 11:32:10;;;;;;;4.93;3.00;;;11.10;99.90;;;;;;4896886;29;20236;-61
2022/03/07 11:34:39;;;;;;;3.30;2.80;;;11.30;99.90;;;;;;4894551;29;20238;-61
2022/03/07 11:37:18;;;;;;;4.10;2.90;;;11.00;99.90;;;;;;4896033;29;20607;-61
2022/03/07 11:39:46;;;;;;;5.23;2.87;;;10.90;99.90;;;;;;4895505;29;20274;-61
2022/03/07 11:42:17;;;;;;;3.57;2.80;;;11.00;99.90;;;;;;4896624;29;20226;-61
2022/03/07 11:44:46;;;;;;;5.13;2.97;;;10.90;99.90;;;;;;4896730;29;20282;-61
2022/03/07 11:47:16;;;;;;;3.70;3.00;;;11.10;99.90;;;;;;4896684;29;20236;-61
2022/03/07 11:49:45;;;;;;;5.47;3.50;;;11.00;99.90;;;;;;4896594;29;20236;-60
2022/03/07 11:52:18;;;;;;;4.63;3.50;;;11.20;99.90;;;;;;4896246;29;20220;-61
2022/03/07 11:54:53;;;;;;;3.97;3.30;;;11.40;99.90;;;;;;4896294;29;20639;-60
2022/03/07 11:57:33;;;;;;;3.63;3.20;;;11.50;99.90;;;;;;4894420;29;20298;-61
2022/03/07 12:00:19;;;;;;;4.57;3.13;;;11.50;99.90;;;;;;4898362;29;20628;-61
2022/03/07 12:02:51;;;;;;;3.50;3.10;;;11.30;99.90;;;;;;4913674;29;20242;-61
2022/03/07 12:05:21;;;;;;;4.57;3.30;;;11.10;99.90;;;;;;4915962;29;20289;-61
2022/03/07 12:07:51;;;;;;;4.00;2.77;;;11.00;99.90;;;;;;4915545;29;20237;-61
2022/03/07 12:10:19;;;;;;;3.57;2.53;;;10.80;99.90;;;;;;4915531;29;20238;-61
2022/03/07 12:12:47;;;;;;;3.23;2.60;;;10.70;99.90;;;;;;4922963;29;20249;-61
2022/03/07 12:15:49;;;;;;;2.93;2.63;;;10.80;99.90;;;;;;4933438;29;20233;-61
2022/03/07 12:18:19;;;;;;;5.80;2.90;;;10.40;99.90;;;;;;4924811;29;20241;-61
2022/03/07 12:20:49;;;;;;;3.23;2.50;;;10.30;99.90;;;;;;4932527;29;20272;-61
2022/03/07 12:23:21;;;;;;;2.70;2.47;;;10.40;99.90;;;;;;4919665;29;20267;-61
2022/03/07 12:25:57;;;;;;;3.13;2.50;;;10.50;99.90;;;;;;4915340;29;20325;-61
2022/03/07 12:28:31;;;;;;;3.20;2.60;;;10.60;99.90;;;;;;4915404;29;20267;-61
2022/03/07 12:30:59;;;;;;;4.53;2.47;;;10.70;99.90;;;;;;4914457;29;20237;-61
2022/03/07 12:33:29;;;;;;;4.43;2.70;;;10.70;99.90;;;;;;4915254;29;20237;-61
2022/03/07 12:36:17;;;;;;;3.20;2.30;;;10.80;99.90;;;;;;4914998;29;20246;-61
2022/03/07 12:38:52;;;;;;;3.00;2.60;;;10.60;99.90;;;;;;4914857;29;20238;-61
2022/03/07 12:41:28;;;;;;;5.40;2.50;;;10.30;99.90;;;;;;4914711;29;20263;-61
2022/03/07 12:43:56;;;;;;;4.77;2.70;;;10.30;99.90;;;;;;4916152;29;20253;-61
2022/03/07 12:46:25;;;;;;;3.63;2.80;;;10.20;99.90;;;;;;4914577;29;20241;-61
2022/03/07 12:48:54;;;;;;;4.17;2.83;;;10.00;99.90;;;;;;4915249;29;20235;-61
2022/03/07 12:51:24;;;;;;;3.40;2.70;;;10.20;99.90;;;;;;4914498;29;20253;-61
2022/03/07 12:53:55;;;;;;;3.00;2.70;;;10.30;99.90;;;;;;4916030;29;20241;-61
2022/03/07 12:56:25;;;;;;;4.33;2.73;;;10.30;99.90;;;;;;4914497;29;20272;-61